createdAt,value
2022-11-23T00:02:31.087Z,56.08
2022-11-23T00:05:19.946Z,57.17
2022-11-23T00:08:09.095Z,56.13
2022-11-23T00:10:51.230Z,56.33
2022-11-23T00:13:39.950Z,55.90
2022-11-23T00:16:33.360Z,59.33
2022-11-23T00:19:15.081Z,56.37
2022-11-23T00:22:04.547Z,57.67
2022-11-23T00:24:59.208Z,57.35
2022-11-23T00:27:41.277Z,57.88
2022-11-23T00:30:31.060Z,58.22
2022-11-23T00:33:20.099Z,57.50
2022-11-23T00:36:22.980Z,56.97
2022-11-23T00:39:08.412Z,58.42
2022-11-23T00:41:57.996Z,59.25
2022-11-23T00:44:40.283Z,57.08
2022-11-23T00:47:28.989Z,57.30
2022-11-23T00:50:19.323Z,58.33
2022-11-23T00:53:00.950Z,59.83
2022-11-23T00:55:59.458Z,61.33
2022-11-23T00:58:42.015Z,60.42
2022-11-23T01:01:26.810Z,61.22
2022-11-23T01:04:19.958Z,61.88
2022-11-23T01:07:13.025Z,61.78
2022-11-23T01:09:55.286Z,61.90
2022-11-23T01:12:43.956Z,63.08
2022-11-23T01:15:26.377Z,62.28
2022-11-23T01:18:15.058Z,61.53
2022-11-23T01:20:57.804Z,64.53
2022-11-23T01:23:46.946Z,64.03
2022-11-23T01:26:36.336Z,63.80
2022-11-23T01:29:19.067Z,90.85
2022-11-23T01:32:07.979Z,79.32
2022-11-23T01:34:56.970Z,70.20
2022-11-23T01:37:46.083Z,64.93
2022-11-23T01:40:28.473Z,64.32
2022-11-23T01:43:24.087Z,66.10
2022-11-23T01:46:08.308Z,66.40
2022-11-23T01:49:07.079Z,66.90
2022-11-23T01:51:52.421Z,69.30
2022-11-23T01:54:52.012Z,72.80
2022-11-23T01:57:41.399Z,72.80
2022-11-23T02:00:29.941Z,73.15
2022-11-23T02:03:14.461Z,69.43
2022-11-23T02:06:09.582Z,72.30
2022-11-23T02:08:52.333Z,72.53
2022-11-23T02:11:41.074Z,73.28
2022-11-23T02:14:23.707Z,79.30
2022-11-23T02:17:14.014Z,78.07
2022-11-23T02:20:09.977Z,77.38
2022-11-23T02:23:30.944Z,77.28
2022-11-23T02:26:43.043Z,73.70
2022-11-23T02:29:36.003Z,75.85
2022-11-23T02:32:25.061Z,75.45
2022-11-23T02:35:14.043Z,74.22
2022-11-23T02:38:05.036Z,77.35
2022-11-23T02:40:47.625Z,77.45
2022-11-23T02:43:38.055Z,79.88
2022-11-23T02:46:27.009Z,80.00
2022-11-23T02:49:09.248Z,80.40
2022-11-23T02:51:58.065Z,82.43
2022-11-23T02:54:40.277Z,85.05
2022-11-23T02:57:29.126Z,85.03
2022-11-23T03:00:13.468Z,84.47
2022-11-23T03:03:03.106Z,88.03
2022-11-23T03:05:46.312Z,86.05
2022-11-23T03:08:35.008Z,87.50
2022-11-23T03:11:17.315Z,89.47
2022-11-23T03:14:06.039Z,92.95
2022-11-23T03:16:58.368Z,97.85
2022-11-23T03:19:53.062Z,102.28
2022-11-23T03:22:37.449Z,104.30
2022-11-23T03:25:27.992Z,107.63
2022-11-23T03:28:19.044Z,111.75
2022-11-23T03:31:01.377Z,104.38
2022-11-23T03:33:51.973Z,105.50
2022-11-23T03:36:42.009Z,101.10
2022-11-23T03:39:31.180Z,101.78
2022-11-23T03:42:40.101Z,100.53
2022-11-23T03:45:22.428Z,106.20
2022-11-23T03:48:11.052Z,100.93
2022-11-23T03:50:54.365Z,99.72
2022-11-23T03:53:43.913Z,96.90
2022-11-23T03:56:26.380Z,95.97
2022-11-23T03:59:15.904Z,88.90
2022-11-23T04:01:59.378Z,81.75
2022-11-23T04:04:51.893Z,74.00
2022-11-23T04:07:58.407Z,64.90
2022-11-23T04:10:47.046Z,63.65
2022-11-23T04:13:38.976Z,55.45
2022-11-23T04:16:29.040Z,54.30
2022-11-23T04:19:11.237Z,50.05
2022-11-23T04:22:00.048Z,48.25
2022-11-23T04:25:00.833Z,46.63
2022-11-23T04:27:50.049Z,44.08
2022-11-23T04:30:33.324Z,39.70
2022-11-23T04:33:21.936Z,40.38
2022-11-23T04:36:11.913Z,41.10
2022-11-23T04:39:01.299Z,41.65
2022-11-23T04:41:51.898Z,38.30
2022-11-23T04:44:48.048Z,34.85
2022-11-23T04:47:37.318Z,33.85
2022-11-23T04:50:21.947Z,33.42
2022-11-23T04:53:12.301Z,35.17
2022-11-23T04:55:55.982Z,32.58
2022-11-23T04:58:49.328Z,33.00
2022-11-23T05:01:32.958Z,33.05
2022-11-23T05:04:51.144Z,30.00
2022-11-23T05:07:44.248Z,25.88
2022-11-23T05:10:41.896Z,27.75
2022-11-23T05:13:24.795Z,29.27
2022-11-23T05:16:14.064Z,31.35
2022-11-23T05:18:57.169Z,30.65
2022-11-23T05:21:47.929Z,32.72
2022-11-23T05:24:44.911Z,36.83
2022-11-23T05:27:36.916Z,36.10
2022-11-23T05:30:20.258Z,36.92
2022-11-23T05:33:10.912Z,41.08
2022-11-23T05:35:54.258Z,40.63
2022-11-23T05:38:50.914Z,38.33
2022-11-23T05:41:45.977Z,40.10
2022-11-23T05:44:49.169Z,40.60
2022-11-23T05:47:44.940Z,38.78
2022-11-23T05:50:35.271Z,37.85
2022-11-23T05:53:53.129Z,36.30
2022-11-23T05:57:06.589Z,32.92
2022-11-23T05:59:56.929Z,33.05
2022-11-23T06:02:54.927Z,36.67
2022-11-23T06:05:40.491Z,36.40
2022-11-23T06:08:29.092Z,34.45
2022-11-23T06:11:13.484Z,35.65
2022-11-23T06:14:03.053Z,34.92
2022-11-23T06:16:45.358Z,33.90
2022-11-23T06:19:54.053Z,35.13
2022-11-23T06:22:36.244Z,35.33
2022-11-23T06:25:30.927Z,33.33
2022-11-23T06:28:30.249Z,35.10
2022-11-23T06:31:20.908Z,35.60
2022-11-23T06:34:10.277Z,34.92
2022-11-23T06:36:52.950Z,40.10
2022-11-23T06:39:42.332Z,42.33
2022-11-23T06:42:38.431Z,44.75
2022-11-23T06:45:34.235Z,43.58
2022-11-23T06:48:27.032Z,44.45
2022-11-23T06:51:10.214Z,44.88
2022-11-23T06:54:01.035Z,45.95
2022-11-23T06:56:43.217Z,43.90
2022-11-23T06:59:32.181Z,45.00
2022-11-23T07:02:21.902Z,33.00
2022-11-23T07:05:06.318Z,26.27
2022-11-23T07:07:56.031Z,23.48
2022-11-23T07:10:38.279Z,23.10
2022-11-23T07:13:31.009Z,19.80
2022-11-23T07:16:20.101Z,24.60
2022-11-23T07:19:08.298Z,22.23
2022-11-23T07:21:51.049Z,19.25
2022-11-23T07:24:39.517Z,18.27
2022-11-23T07:27:32.033Z,19.20
2022-11-23T07:30:28.976Z,19.90
2022-11-23T07:33:18.031Z,20.83
2022-11-23T07:36:10.585Z,19.35
2022-11-23T07:38:53.966Z,17.30
2022-11-23T07:41:43.033Z,19.42
2022-11-23T07:44:44.032Z,18.15
2022-11-23T07:47:32.295Z,19.95
2022-11-23T07:50:17.042Z,19.75
2022-11-23T07:53:06.275Z,20.98
2022-11-23T07:55:48.062Z,19.77
2022-11-23T07:58:30.203Z,19.50
2022-11-23T08:01:20.051Z,19.10
2022-11-23T08:04:02.210Z,16.98
2022-11-23T08:06:50.883Z,18.33
2022-11-23T08:09:39.894Z,16.55
2022-11-23T08:12:22.763Z,17.15
2022-11-23T08:15:11.946Z,17.13
2022-11-23T08:17:54.756Z,17.63
2022-11-23T08:20:44.048Z,16.70
2022-11-23T08:23:26.797Z,16.30
2022-11-23T08:26:15.926Z,16.85
2022-11-23T08:29:04.991Z,18.30
2022-11-23T08:31:53.873Z,16.92
2022-11-23T08:34:43.039Z,15.98
2022-11-23T08:37:25.261Z,17.25
2022-11-23T08:40:13.994Z,17.50
2022-11-23T08:42:56.223Z,16.90
2022-11-23T08:45:44.920Z,16.83
2022-11-23T08:48:33.892Z,16.25
2022-11-23T08:51:22.908Z,18.23
2022-11-23T08:54:12.185Z,17.67
2022-11-23T08:57:01.035Z,18.70
2022-11-23T08:59:50.329Z,17.77
2022-11-23T09:02:34.010Z,14.60
2022-11-23T09:05:22.941Z,13.40
2022-11-23T09:08:08.327Z,12.70
2022-11-23T09:10:57.085Z,12.45
2022-11-23T09:13:40.299Z,12.25
2022-11-23T09:16:33.868Z,11.87
2022-11-23T09:19:18.288Z,12.85
2022-11-23T09:22:07.054Z,12.07
2022-11-23T09:24:56.052Z,12.07
2022-11-23T09:27:44.257Z,11.98
2022-11-23T09:30:25.956Z,12.20
2022-11-23T09:33:15.948Z,12.68
2022-11-23T09:36:15.935Z,12.98
2022-11-23T09:39:04.888Z,12.40
2022-11-23T09:42:12.026Z,12.50
2022-11-23T09:44:54.181Z,13.68
2022-11-23T09:48:00.988Z,14.77
2022-11-23T09:50:59.275Z,13.50
2022-11-23T09:53:57.042Z,12.95
2022-11-23T09:56:41.835Z,13.40
2022-11-23T09:59:49.967Z,14.00
2022-11-23T10:02:43.975Z,13.82
2022-11-23T10:05:30.257Z,13.20
2022-11-23T10:08:38.887Z,13.05
2022-11-23T10:11:33.287Z,15.63
2022-11-23T10:14:32.210Z,12.65
2022-11-23T10:17:31.302Z,12.75
2022-11-23T10:20:48.032Z,12.93
2022-11-23T10:24:03.316Z,13.95
2022-11-23T10:27:07.063Z,14.27
2022-11-23T10:29:57.684Z,13.07
2022-11-23T10:32:55.017Z,14.40
2022-11-23T10:35:44.260Z,13.93
2022-11-23T10:38:28.957Z,14.02
2022-11-23T10:41:21.335Z,13.90
2022-11-23T10:44:32.371Z,13.00
2022-11-23T10:47:55.974Z,13.35
2022-11-23T10:50:42.277Z,12.95
2022-11-23T10:53:33.996Z,14.65
2022-11-23T10:56:21.260Z,13.75
2022-11-23T10:59:10.056Z,13.40
2022-11-23T11:02:11.288Z,14.05
2022-11-23T11:05:20.072Z,14.70
2022-11-23T11:08:09.251Z,16.75
2022-11-23T11:11:10.978Z,15.85
2022-11-23T11:14:02.997Z,16.83
2022-11-23T11:16:59.122Z,17.30
2022-11-23T11:19:50.044Z,17.67
2022-11-23T11:22:37.518Z,17.90
2022-11-23T11:25:45.897Z,17.95
2022-11-23T11:28:44.861Z,17.58
2022-11-23T11:31:47.944Z,18.45
2022-11-23T11:34:48.162Z,16.35
2022-11-23T11:37:52.041Z,16.25
2022-11-23T11:40:54.941Z,16.77
2022-11-23T11:43:50.033Z,16.23
2022-11-23T11:46:39.471Z,16.80
2022-11-23T11:49:38.996Z,15.57
2022-11-23T11:52:28.726Z,16.27
2022-11-23T11:55:33.065Z,15.57
2022-11-23T11:58:18.216Z,16.95
2022-11-23T12:01:43.007Z,16.75
2022-11-23T12:05:06.997Z,17.45
2022-11-23T12:08:21.031Z,19.15
2022-11-23T12:11:07.767Z,18.00
2022-11-23T12:13:57.957Z,18.05
2022-11-23T12:20:21.423Z,18.67
2022-11-23T12:23:30.973Z,19.45
2022-11-23T12:26:53.256Z,19.73
2022-11-23T12:29:54.974Z,19.50
2022-11-23T12:33:07.010Z,19.63
2022-11-23T12:36:07.286Z,19.00
2022-11-23T12:39:10.997Z,21.25
2022-11-23T12:45:00.976Z,20.20
2022-11-23T12:47:58.456Z,20.58
2022-11-23T12:50:58.006Z,21.52
2022-11-23T12:54:12.450Z,20.27
2022-11-23T12:57:05.991Z,20.70
2022-11-23T12:59:57.284Z,22.23
2022-11-23T13:03:05.965Z,22.42
2022-11-23T13:06:28.965Z,20.58
2022-11-23T13:09:30.021Z,22.67
2022-11-23T13:12:25.015Z,22.67
2022-11-23T13:15:43.712Z,24.48
2022-11-23T13:19:09.962Z,25.40
2022-11-23T13:21:59.337Z,25.05
2022-11-23T13:24:45.975Z,24.20
2022-11-23T13:27:51.271Z,24.08
2022-11-23T13:31:13.261Z,25.27
2022-11-23T13:33:47.323Z,25.05
2022-11-23T13:37:10.551Z,26.42
2022-11-23T13:39:53.298Z,26.08
2022-11-23T13:42:45.924Z,27.45
2022-11-23T13:45:47.006Z,26.55
2022-11-23T13:51:41.028Z,28.08
2022-11-23T13:54:31.647Z,26.85
2022-11-23T13:57:21.951Z,27.55
2022-11-23T14:00:50.087Z,29.38
2022-11-23T14:03:51.430Z,29.65
2022-11-23T14:06:52.023Z,31.95
2022-11-23T14:09:53.265Z,32.33
2022-11-23T14:12:49.960Z,33.40
2022-11-23T14:15:43.961Z,33.63
2022-11-23T14:18:44.390Z,35.25
2022-11-23T14:21:49.057Z,35.85
2022-11-23T14:24:52.376Z,33.65
2022-11-23T14:28:05.979Z,34.55
2022-11-23T14:30:57.327Z,34.10
2022-11-23T14:33:52.059Z,34.60
2022-11-23T14:36:43.304Z,34.60
2022-11-23T14:40:00.053Z,34.00
2022-11-23T14:42:54.321Z,34.55
2022-11-23T14:45:42.065Z,36.45
2022-11-23T14:48:35.249Z,35.70
2022-11-23T14:51:39.053Z,36.10
2022-11-23T14:57:11.935Z,35.92
2022-11-23T15:00:11.818Z,33.80
2022-11-23T15:03:07.242Z,35.75
2022-11-23T15:06:22.382Z,31.90
2022-11-23T15:09:42.041Z,32.10
2022-11-23T15:12:34.345Z,33.22
2022-11-23T15:15:41.144Z,33.05
2022-11-23T15:18:41.379Z,34.75
2022-11-23T15:21:33.006Z,35.33
2022-11-23T15:24:27.185Z,35.30
2022-11-23T15:27:20.855Z,35.72
2022-11-23T15:32:53.928Z,37.00
2022-11-23T15:35:44.868Z,39.88
2022-11-23T15:38:28.282Z,39.95
2022-11-23T15:41:16.926Z,39.58
2022-11-23T15:44:07.273Z,38.10
2022-11-23T15:46:56.941Z,39.75
2022-11-23T15:49:39.346Z,39.65
2022-11-23T15:52:28.949Z,40.15
2022-11-23T15:55:16.907Z,39.67
2022-11-23T15:58:07.913Z,41.42
2022-11-23T16:01:05.453Z,41.95
2022-11-23T16:03:59.880Z,44.10
2022-11-23T16:06:56.847Z,42.63
2022-11-23T16:09:52.703Z,43.40
2022-11-23T16:12:41.872Z,42.58
2022-11-23T16:15:38.814Z,45.47
2022-11-23T16:18:39.987Z,47.35
2022-11-23T16:21:27.844Z,50.20
2022-11-23T16:24:28.434Z,48.60
2022-11-23T16:27:23.244Z,47.15
2022-11-23T16:30:06.018Z,47.50
2022-11-23T16:32:54.300Z,47.88
2022-11-23T16:35:36.946Z,47.28
2022-11-23T16:38:19.335Z,47.20
2022-11-23T16:41:07.976Z,46.65
2022-11-23T16:43:59.009Z,47.40
2022-11-23T16:46:47.967Z,47.60
2022-11-23T16:49:37.003Z,48.10
2022-11-23T16:52:19.285Z,49.35
2022-11-23T16:55:07.868Z,47.45
2022-11-23T16:58:00.999Z,47.40
2022-11-23T17:00:49.876Z,46.47
2022-11-23T17:03:32.327Z,48.00
2022-11-23T17:06:22.888Z,47.97
2022-11-23T17:09:08.087Z,48.63
2022-11-23T17:11:58.888Z,47.75
2022-11-23T17:14:52.983Z,47.35
2022-11-23T17:17:35.258Z,45.97
2022-11-23T17:20:27.920Z,47.80
2022-11-23T17:23:10.168Z,48.53
2022-11-23T17:25:58.976Z,46.72
2022-11-23T17:28:47.216Z,46.63
2022-11-23T17:31:29.960Z,46.47
2022-11-23T17:34:19.577Z,47.22
2022-11-23T17:37:02.012Z,46.63
2022-11-23T17:39:44.325Z,49.20
2022-11-23T17:42:33.859Z,49.65
2022-11-23T17:45:16.443Z,49.42
2022-11-23T17:48:04.853Z,48.75
2022-11-23T17:50:53.215Z,48.30
2022-11-23T17:53:36.018Z,49.30
2022-11-23T17:56:29.633Z,51.40
2022-11-23T17:59:20.038Z,48.28
2022-11-23T18:02:08.274Z,48.53
2022-11-23T18:04:51.042Z,50.45
2022-11-23T18:07:39.354Z,53.22
2022-11-23T18:10:21.971Z,49.78
2022-11-23T18:13:12.763Z,52.40
2022-11-23T18:15:55.953Z,52.83
2022-11-23T18:18:45.380Z,50.75
2022-11-23T18:21:27.881Z,51.67
2022-11-23T18:24:17.320Z,50.53
2022-11-23T18:27:12.003Z,51.33
2022-11-23T18:30:01.276Z,50.75
2022-11-23T18:32:43.867Z,48.13
2022-11-23T18:35:32.850Z,48.83
2022-11-23T18:38:15.308Z,49.92
2022-11-23T18:41:03.836Z,50.15
2022-11-23T18:43:46.254Z,56.33
2022-11-23T18:46:36.923Z,53.50
2022-11-23T18:49:20.320Z,55.65
2022-11-23T18:52:08.977Z,53.15
2022-11-23T18:54:51.396Z,50.47
2022-11-23T18:57:39.970Z,52.15
2022-11-23T19:00:22.506Z,51.67
2022-11-23T19:03:11.950Z,49.60
2022-11-23T19:06:01.050Z,49.00
2022-11-23T19:08:48.154Z,49.47
2022-11-23T19:11:39.929Z,50.72
2022-11-23T19:14:22.168Z,50.00
2022-11-23T19:17:10.820Z,50.25
2022-11-23T19:19:59.830Z,48.97
2022-11-23T19:22:43.264Z,49.83
2022-11-23T19:25:32.918Z,50.17
2022-11-23T19:28:21.170Z,48.17
2022-11-23T19:31:04.013Z,48.35
2022-11-23T19:33:53.879Z,47.87
2022-11-23T19:36:44.912Z,49.88
2022-11-23T19:39:27.153Z,48.90
2022-11-23T19:42:15.932Z,50.35
2022-11-23T19:45:04.325Z,50.08
2022-11-23T19:47:46.920Z,51.40
2022-11-23T19:50:29.358Z,51.83
2022-11-23T19:53:17.926Z,52.42
2022-11-23T19:56:09.233Z,49.28
2022-11-23T19:58:58.860Z,51.80
2022-11-23T20:01:48.090Z,50.58
2022-11-23T20:04:30.479Z,49.30
2022-11-23T20:07:21.108Z,47.80
2022-11-23T20:10:03.234Z,48.05
2022-11-23T20:12:51.950Z,52.28
2022-11-23T20:15:34.234Z,48.70
2022-11-23T20:18:29.553Z,48.95
2022-11-23T20:21:12.978Z,48.55
2022-11-23T20:24:13.245Z,48.08
2022-11-23T20:27:07.785Z,49.63
2022-11-23T20:29:56.981Z,49.50
2022-11-23T20:32:39.273Z,48.88
2022-11-23T20:35:28.294Z,51.55
2022-11-23T20:38:11.392Z,47.90
2022-11-23T20:41:00.964Z,48.08
2022-11-23T20:43:43.215Z,47.30
2022-11-23T20:49:35.462Z,48.42
2022-11-23T20:52:23.816Z,48.72
2022-11-23T20:55:06.385Z,48.65
2022-11-23T20:57:54.917Z,48.83
2022-11-23T21:00:48.653Z,49.85
2022-11-23T21:03:42.287Z,48.60
2022-11-23T21:06:24.982Z,51.10
2022-11-23T21:09:13.335Z,50.83
2022-11-23T21:12:13.813Z,51.05
2022-11-23T21:15:02.213Z,50.08
2022-11-23T21:17:43.863Z,52.20
2022-11-23T21:20:36.421Z,53.35
2022-11-23T21:23:18.823Z,54.35
2022-11-23T21:26:07.681Z,53.75
2022-11-23T21:28:56.951Z,53.30
2022-11-23T21:31:47.359Z,54.55
2022-11-23T21:34:34.283Z,55.63
2022-11-23T21:37:23.322Z,57.60
2022-11-23T21:40:04.857Z,57.60
2022-11-23T21:42:47.277Z,55.42
2022-11-23T21:45:36.121Z,59.17
2022-11-23T21:48:18.129Z,57.45
2022-11-23T21:51:26.899Z,58.47
2022-11-23T21:54:23.864Z,58.10
2022-11-23T21:57:12.201Z,60.47
2022-11-23T21:59:54.786Z,61.83
2022-11-23T22:02:47.134Z,64.10
2022-11-23T22:05:35.902Z,63.25
2022-11-23T22:08:31.385Z,62.92
2022-11-23T22:11:21.836Z,65.22
2022-11-23T22:14:16.000Z,69.97
2022-11-23T22:16:59.407Z,71.15
2022-11-23T22:19:47.845Z,69.00
2022-11-23T22:22:30.625Z,69.68
2022-11-23T22:25:19.976Z,71.03
2022-11-23T22:28:14.792Z,66.75
2022-11-23T22:31:03.947Z,68.07
2022-11-23T22:33:53.953Z,69.15
2022-11-23T22:36:42.237Z,67.20
2022-11-23T22:39:23.833Z,68.57
2022-11-23T22:42:13.455Z,68.78
2022-11-23T22:44:55.178Z,69.18
2022-11-23T22:47:37.283Z,66.28
2022-11-23T22:50:25.981Z,67.40
2022-11-23T22:53:08.106Z,67.30
2022-11-23T22:55:56.934Z,69.95
2022-11-23T22:58:45.648Z,69.43
2022-11-23T23:01:30.990Z,68.60
2022-11-23T23:04:20.237Z,66.93
2022-11-23T23:07:02.929Z,68.63
2022-11-23T23:09:51.205Z,70.78
2022-11-23T23:12:33.952Z,69.68
2022-11-23T23:15:22.267Z,71.47
2022-11-23T23:18:04.907Z,68.82
2022-11-23T23:20:53.208Z,70.05
2022-11-23T23:23:35.991Z,71.28
2022-11-23T23:26:20.554Z,70.45
2022-11-23T23:29:11.916Z,71.28
2022-11-23T23:31:54.209Z,72.38
2022-11-23T23:34:42.823Z,72.35
2022-11-23T23:37:32.240Z,73.35
2022-11-23T23:40:14.911Z,76.03
2022-11-23T23:43:05.201Z,75.22
2022-11-23T23:45:47.258Z,70.88
2022-11-23T23:48:34.805Z,70.32
2022-11-23T23:51:24.916Z,67.05
2022-11-23T23:54:07.386Z,65.15
2022-11-23T23:56:55.925Z,65.82
2022-11-23T23:59:45.237Z,62.63
